createdAt,value
2018-07-03T00:00:22.204Z,18.97
2018-07-03T00:01:22.192Z,18.95
2018-07-03T00:02:22.254Z,18.92
2018-07-03T00:03:22.151Z,18.84
2018-07-03T00:04:22.147Z,18.97
2018-07-03T00:05:22.144Z,18.91
2018-07-03T00:06:22.144Z,18.82
2018-07-03T00:07:22.158Z,18.84
2018-07-03T00:08:22.141Z,18.83
2018-07-03T00:09:22.129Z,18.82
2018-07-03T00:10:22.131Z,18.79
2018-07-03T00:11:22.157Z,18.82
2018-07-03T00:12:22.150Z,18.86
2018-07-03T00:13:22.134Z,18.73
2018-07-03T00:14:22.130Z,18.73
2018-07-03T00:15:22.143Z,18.80
2018-07-03T00:16:22.133Z,18.58
2018-07-03T00:17:22.125Z,18.65
2018-07-03T00:18:22.126Z,18.52
2018-07-03T00:19:22.127Z,18.57
2018-07-03T00:20:22.121Z,18.47
2018-07-03T00:21:22.121Z,18.55
2018-07-03T00:22:22.121Z,18.52
2018-07-03T00:23:22.113Z,18.52
2018-07-03T00:24:22.114Z,18.49
2018-07-03T00:25:22.121Z,18.36
2018-07-03T00:26:22.110Z,18.46
2018-07-03T00:27:22.113Z,18.36
2018-07-03T00:28:22.130Z,18.42
2018-07-03T00:29:22.109Z,18.33
2018-07-03T00:30:22.136Z,18.29
2018-07-03T00:31:22.151Z,18.25
2018-07-03T00:32:22.114Z,18.25
2018-07-03T00:33:22.121Z,18.18
2018-07-03T00:34:22.092Z,18.13
2018-07-03T00:35:22.100Z,18.06
2018-07-03T00:36:22.122Z,18.09
2018-07-03T00:37:22.095Z,18.02
2018-07-03T00:38:22.093Z,18.03
2018-07-03T00:39:22.089Z,18.09
2018-07-03T00:40:22.230Z,18.03
2018-07-03T00:41:22.088Z,18.03
2018-07-03T00:42:22.084Z,17.99
2018-07-03T00:43:22.093Z,17.89
2018-07-03T00:44:22.109Z,17.95
2018-07-03T00:45:22.078Z,17.89
2018-07-03T00:46:22.128Z,17.92
2018-07-03T00:47:22.079Z,17.95
2018-07-03T00:48:22.069Z,17.92
2018-07-03T00:49:22.070Z,17.95
2018-07-03T00:50:22.069Z,17.92
2018-07-03T00:51:22.067Z,17.92
2018-07-03T00:52:22.080Z,17.91
2018-07-03T00:53:22.065Z,17.92
2018-07-03T00:54:22.067Z,17.89
2018-07-03T00:55:22.048Z,17.91
2018-07-03T00:56:22.932Z,17.92
2018-07-03T00:57:22.076Z,17.92
2018-07-03T00:58:22.078Z,17.85
2018-07-03T00:59:22.066Z,17.89
2018-07-03T01:00:22.063Z,17.82
2018-07-03T01:01:22.280Z,17.79
2018-07-03T01:02:22.153Z,17.84
2018-07-03T01:03:22.049Z,17.78
2018-07-03T01:04:22.061Z,17.76
2018-07-03T01:05:22.036Z,17.74
2018-07-03T01:06:22.039Z,17.76
2018-07-03T01:07:22.042Z,17.74
2018-07-03T01:08:22.058Z,17.71
2018-07-03T01:09:22.033Z,17.74
2018-07-03T01:10:22.052Z,17.67
2018-07-03T01:11:22.053Z,17.79
2018-07-03T01:12:22.032Z,17.69
2018-07-03T01:13:22.018Z,17.69
2018-07-03T01:14:22.023Z,17.71
2018-07-03T01:15:22.026Z,17.76
2018-07-03T01:16:22.036Z,17.79
2018-07-03T01:17:22.128Z,17.78
2018-07-03T01:18:22.019Z,17.74
2018-07-03T01:19:22.034Z,17.76
2018-07-03T01:20:22.013Z,17.71
2018-07-03T01:21:22.033Z,17.67
2018-07-03T01:22:22.028Z,17.63
2018-07-03T01:23:22.009Z,17.62
2018-07-03T01:24:22.028Z,17.64
2018-07-03T01:25:22.086Z,17.55
2018-07-03T01:26:22.034Z,17.54
2018-07-03T01:27:22.008Z,17.53
2018-07-03T01:28:22.000Z,17.54
2018-07-03T01:29:21.988Z,17.41
2018-07-03T01:30:21.995Z,17.36
2018-07-03T02:04:12.806Z,16.70
2018-07-03T02:05:12.773Z,16.67
2018-07-03T02:07:05.675Z,16.71
2018-07-03T02:08:05.643Z,16.65
2018-07-03T02:09:58.538Z,16.75
2018-07-03T02:10:58.527Z,16.73
2018-07-03T02:12:51.437Z,16.71
2018-07-03T02:13:51.400Z,16.71
2018-07-03T02:15:44.290Z,16.60
2018-07-03T02:16:44.283Z,16.65
2018-07-03T02:18:37.303Z,16.55
2018-07-03T02:19:37.275Z,16.44
2018-07-03T02:21:30.194Z,16.52
2018-07-03T02:22:30.156Z,16.42
2018-07-03T02:24:23.049Z,16.49
2018-07-03T02:25:23.033Z,16.52
2018-07-03T02:27:15.933Z,16.41
2018-07-03T02:28:15.916Z,16.38
2018-07-03T02:30:08.800Z,16.41
2018-07-03T02:31:08.791Z,16.33
2018-07-03T02:33:01.690Z,16.38
2018-07-03T02:34:01.679Z,16.35
2018-07-03T02:35:54.565Z,16.33
2018-07-03T02:36:54.554Z,16.23
2018-07-03T02:38:47.458Z,16.26
2018-07-03T02:39:47.442Z,16.26
2018-07-03T02:41:40.339Z,16.16
2018-07-03T02:42:40.323Z,16.15
2018-07-03T02:44:33.292Z,16.22
2018-07-03T02:45:33.261Z,16.16
2018-07-03T02:47:26.176Z,16.16
2018-07-03T02:48:26.157Z,16.14
2018-07-03T02:50:20.061Z,16.15
2018-07-03T02:51:20.043Z,16.11
2018-07-03T02:53:12.953Z,16.14
2018-07-03T02:54:12.931Z,16.11
2018-07-03T02:56:05.825Z,16.23
2018-07-03T02:57:05.814Z,16.30
2018-07-03T02:58:58.726Z,16.22
2018-07-03T02:59:58.704Z,16.23
2018-07-03T03:01:51.592Z,16.30
2018-07-03T03:02:51.585Z,16.35
2018-07-03T03:04:44.490Z,16.37
2018-07-03T03:05:44.471Z,16.40
2018-07-03T03:07:37.369Z,16.33
2018-07-03T03:08:37.368Z,16.27
2018-07-03T03:10:30.254Z,16.34
2018-07-03T03:11:30.232Z,16.31
2018-07-03T03:13:23.130Z,16.30
2018-07-03T03:14:23.116Z,16.18
2018-07-03T03:16:16.020Z,16.22
2018-07-03T03:17:16.002Z,16.16
2018-07-03T03:19:08.905Z,16.12
2018-07-03T03:20:08.876Z,16.12
2018-07-03T03:22:01.782Z,16.09
2018-07-03T03:23:01.773Z,16.14
2018-07-03T03:24:54.674Z,16.07
2018-07-03T03:25:54.651Z,16.11
2018-07-03T03:27:47.561Z,16.01
2018-07-03T03:28:47.552Z,16.03
2018-07-03T03:30:40.470Z,16.00
2018-07-03T03:31:40.431Z,16.04
2018-07-03T03:33:33.326Z,16.07
2018-07-03T03:34:33.315Z,16.11
2018-07-03T03:36:26.229Z,16.12
2018-07-03T03:37:26.204Z,16.04
2018-07-03T03:39:19.112Z,16.14
2018-07-03T03:40:19.090Z,16.07
2018-07-03T03:42:11.997Z,16.03
2018-07-03T03:43:11.972Z,16.15
2018-07-03T03:45:04.883Z,16.09
2018-07-03T03:46:04.860Z,16.11
2018-07-03T03:47:57.757Z,16.12
2018-07-03T03:48:57.748Z,16.12
2018-07-03T03:50:50.653Z,16.31
2018-07-03T03:51:50.635Z,16.34
2018-07-03T03:53:43.530Z,16.33
2018-07-03T03:54:43.512Z,16.44
2018-07-03T03:56:36.417Z,16.45
2018-07-03T03:57:36.397Z,16.44
2018-07-03T03:59:29.294Z,16.48
2018-07-03T04:00:29.279Z,16.48
2018-07-03T04:02:22.178Z,16.55
2018-07-03T04:03:22.163Z,16.60
2018-07-03T04:05:15.058Z,16.70
2018-07-03T04:06:15.041Z,16.80
2018-07-03T04:08:07.947Z,16.85
2018-07-03T04:09:07.929Z,16.83
2018-07-03T04:11:01.235Z,16.98
2018-07-03T04:12:01.215Z,16.95
2018-07-03T04:13:01.215Z,16.92
2018-07-03T04:14:01.223Z,16.93
2018-07-03T04:15:01.211Z,16.98
2018-07-03T04:16:01.216Z,16.93
2018-07-03T04:17:01.208Z,16.95
2018-07-03T04:18:01.227Z,16.98
2018-07-03T04:19:01.200Z,16.93
2018-07-03T04:20:01.206Z,16.93
2018-07-03T04:21:01.198Z,17.03
2018-07-03T04:22:01.199Z,16.95
2018-07-03T04:23:01.220Z,16.98
2018-07-03T04:24:01.202Z,16.92
2018-07-03T04:25:01.191Z,16.92
2018-07-03T04:26:01.181Z,16.95
2018-07-03T04:27:01.187Z,16.90
2018-07-03T04:28:01.195Z,16.95
2018-07-03T04:29:01.186Z,17.08
2018-07-03T04:30:01.187Z,17.13
2018-07-03T04:31:01.186Z,17.11
2018-07-03T04:32:01.175Z,17.14
2018-07-03T04:33:01.198Z,17.23
2018-07-03T04:34:01.229Z,17.38
2018-07-03T04:35:01.179Z,17.33
2018-07-03T04:36:01.175Z,17.43
2018-07-03T04:37:01.173Z,17.40
2018-07-03T04:38:01.183Z,17.51
2018-07-03T04:39:01.230Z,17.48
2018-07-03T04:40:01.168Z,17.50
2018-07-03T04:41:01.164Z,17.47
2018-07-03T04:42:01.160Z,17.48
2018-07-03T04:43:01.162Z,17.67
2018-07-03T04:44:01.164Z,17.54
2018-07-03T04:45:01.163Z,17.70
2018-07-03T04:46:01.159Z,17.66
2018-07-03T04:47:01.158Z,17.70
2018-07-03T04:48:01.166Z,17.69
2018-07-03T04:49:01.152Z,17.71
2018-07-03T04:50:01.156Z,17.71
2018-07-03T04:51:01.161Z,17.76
2018-07-03T04:52:01.142Z,17.73
2018-07-03T04:53:01.152Z,17.76
2018-07-03T04:54:01.148Z,17.85
2018-07-03T04:55:01.149Z,17.89
2018-07-03T04:56:01.145Z,17.97
2018-07-03T04:57:01.160Z,17.88
2018-07-03T04:58:01.142Z,17.91
2018-07-03T04:59:01.147Z,17.82
2018-07-03T05:00:01.143Z,17.88
2018-07-03T05:01:01.138Z,17.94
2018-07-03T05:02:01.140Z,18.07
2018-07-03T05:03:01.139Z,17.97
2018-07-03T05:04:01.139Z,17.95
2018-07-03T05:05:01.145Z,18.03
2018-07-03T05:06:01.136Z,18.12
2018-07-03T05:07:01.169Z,18.03
2018-07-03T05:08:01.133Z,18.10
2018-07-03T05:09:01.135Z,17.99
2018-07-03T05:10:01.188Z,18.04
2018-07-03T05:11:01.192Z,18.12
2018-07-03T05:12:01.155Z,18.25
2018-07-03T05:13:01.135Z,18.27
2018-07-03T05:14:01.130Z,18.31
2018-07-03T05:15:01.151Z,18.42
2018-07-03T05:16:01.365Z,18.39
2018-07-03T05:17:01.130Z,18.39
2018-07-03T05:18:01.153Z,18.43
2018-07-03T05:19:01.125Z,18.46
2018-07-03T05:20:01.135Z,18.64
2018-07-03T05:21:01.132Z,18.77
2018-07-03T05:22:01.121Z,18.70
2018-07-03T05:23:01.153Z,18.74
2018-07-03T05:24:01.239Z,18.79
2018-07-03T05:25:01.157Z,18.86
2018-07-03T05:26:01.144Z,18.80
2018-07-03T05:27:01.155Z,18.97
2018-07-03T05:28:01.254Z,18.97
2018-07-03T05:29:01.134Z,19.20
2018-07-03T05:30:01.132Z,19.23
2018-07-03T05:31:01.123Z,19.08
2018-07-03T05:32:01.199Z,19.14
2018-07-03T05:33:01.139Z,19.28
2018-07-03T05:34:01.131Z,19.31
2018-07-03T05:35:01.130Z,19.25
2018-07-03T05:36:01.136Z,19.39
2018-07-03T05:37:01.133Z,19.39
2018-07-03T05:38:01.138Z,19.31
2018-07-03T05:39:01.127Z,19.29
2018-07-03T05:40:01.132Z,19.38
2018-07-03T05:41:01.134Z,19.33
2018-07-03T05:42:01.145Z,19.40
2018-07-03T05:43:01.169Z,19.48
2018-07-03T05:44:01.145Z,19.57
2018-07-03T05:45:01.142Z,19.51
2018-07-03T05:46:01.156Z,19.61
2018-07-03T05:47:01.144Z,19.58
2018-07-03T05:48:01.146Z,19.54
2018-07-03T05:49:01.143Z,19.63
2018-07-03T05:50:01.164Z,19.63
2018-07-03T05:51:01.143Z,19.46
2018-07-03T05:52:01.147Z,19.39
2018-07-03T05:53:01.150Z,19.57
2018-07-03T05:54:01.155Z,19.94
2018-07-03T05:55:01.153Z,20.10
2018-07-03T05:56:01.154Z,19.97
2018-07-03T05:57:01.193Z,19.87
2018-07-03T05:58:01.157Z,20.13
2018-07-03T05:59:01.150Z,20.13
2018-07-03T06:00:01.238Z,20.06
2018-07-03T06:01:01.163Z,20.25
2018-07-03T06:02:01.161Z,20.34
2018-07-03T06:03:01.162Z,20.18
2018-07-03T06:04:01.167Z,20.09
2018-07-03T06:05:01.173Z,20.23
2018-07-03T06:06:01.173Z,20.12
2018-07-03T06:07:01.179Z,20.18
2018-07-03T06:08:01.178Z,20.10
2018-07-03T06:09:01.173Z,20.15
2018-07-03T06:10:01.184Z,20.31
2018-07-03T06:11:01.182Z,20.53
2018-07-03T06:12:01.185Z,20.35
2018-07-03T06:13:01.223Z,20.24
2018-07-03T06:14:01.196Z,20.16
2018-07-03T06:15:01.211Z,20.20
2018-07-03T06:16:01.199Z,20.30
2018-07-03T06:17:01.194Z,20.42
2018-07-03T06:18:01.200Z,20.74
2018-07-03T06:19:01.203Z,20.80
2018-07-03T06:20:01.209Z,20.89
2018-07-03T06:21:01.208Z,20.76
2018-07-03T06:22:01.208Z,20.56
2018-07-03T06:23:01.218Z,20.59
2018-07-03T06:24:01.216Z,21.02
2018-07-03T06:25:01.223Z,21.34
2018-07-03T06:26:01.224Z,21.38
2018-07-03T06:27:01.234Z,21.34
2018-07-03T06:28:01.232Z,21.27
2018-07-03T06:29:01.284Z,21.46
2018-07-03T06:30:01.236Z,21.53
2018-07-03T06:31:01.253Z,21.61
2018-07-03T06:32:01.293Z,21.81
2018-07-03T06:33:01.278Z,21.85
2018-07-03T06:34:01.247Z,21.79
2018-07-03T06:35:01.273Z,21.57
2018-07-03T06:36:01.256Z,21.56
2018-07-03T06:37:01.259Z,21.97
2018-07-03T06:38:01.262Z,21.95
2018-07-03T06:39:01.292Z,22.17
2018-07-03T06:40:01.308Z,22.50
2018-07-03T06:41:01.273Z,22.67
2018-07-03T06:42:01.275Z,22.83
2018-07-03T06:43:01.281Z,23.14
2018-07-03T06:44:01.290Z,23.19
2018-07-03T06:45:01.351Z,23.23
2018-07-03T06:46:01.295Z,23.60
2018-07-03T06:47:01.293Z,23.80
2018-07-03T06:48:01.295Z,23.45
2018-07-03T06:49:01.308Z,24.13
2018-07-03T06:50:01.363Z,23.90
2018-07-03T06:51:01.305Z,23.35
2018-07-03T06:52:01.308Z,23.15
2018-07-03T06:53:01.316Z,23.11
2018-07-03T06:54:01.324Z,23.02
2018-07-03T06:55:01.361Z,23.24
2018-07-03T06:56:01.343Z,23.83
2018-07-03T06:57:01.338Z,24.10
2018-07-03T06:58:01.346Z,24.42
2018-07-03T06:59:01.358Z,24.29
2018-07-03T07:00:01.373Z,24.29
2018-07-03T07:01:01.364Z,24.76
2018-07-03T07:02:01.370Z,24.60
2018-07-03T07:03:01.381Z,23.97
2018-07-03T07:04:01.401Z,24.04
2018-07-03T07:05:01.393Z,24.35
2018-07-03T07:06:01.394Z,24.49
2018-07-03T07:07:01.409Z,23.71
2018-07-03T07:08:01.405Z,23.94
2018-07-03T07:09:01.509Z,24.02
2018-07-03T07:10:01.418Z,24.50
2018-07-03T07:11:01.428Z,25.22
2018-07-03T07:12:01.426Z,26.06
2018-07-03T07:13:01.517Z,26.72
2018-07-03T07:14:01.521Z,26.95
2018-07-03T07:15:01.477Z,26.96
2018-07-03T07:16:01.463Z,25.74
2018-07-03T07:17:01.466Z,25.25
2018-07-03T07:18:01.476Z,24.94
2018-07-03T07:19:01.485Z,25.43
2018-07-03T07:20:01.495Z,26.47
2018-07-03T07:21:01.488Z,25.87
2018-07-03T07:22:01.515Z,25.97
2018-07-03T07:23:01.544Z,25.49
2018-07-03T07:24:01.521Z,25.54
2018-07-03T07:25:01.529Z,25.10
2018-07-03T07:26:01.541Z,25.13
2018-07-03T07:27:01.550Z,25.20
2018-07-03T07:28:01.555Z,25.12
2018-07-03T07:29:01.562Z,25.19
2018-07-03T07:30:01.583Z,24.82
2018-07-03T07:31:01.609Z,24.61
2018-07-03T07:32:01.601Z,24.50
2018-07-03T07:33:01.595Z,24.31
2018-07-03T07:34:01.652Z,24.45
2018-07-03T07:35:01.610Z,24.61
2018-07-03T07:36:01.652Z,24.71
2018-07-03T07:37:01.625Z,24.88
2018-07-03T07:38:01.649Z,24.45
2018-07-03T07:39:01.644Z,24.26
2018-07-03T07:40:01.647Z,23.92
2018-07-03T07:41:01.658Z,23.43
2018-07-03T07:42:01.663Z,23.72
2018-07-03T07:43:01.666Z,23.60
2018-07-03T07:44:01.675Z,23.64
2018-07-03T07:45:01.682Z,23.67
2018-07-03T07:46:01.698Z,23.53
2018-07-03T07:47:01.693Z,23.22
2018-07-03T07:48:01.705Z,23.08
2018-07-03T07:49:01.710Z,23.04
2018-07-03T07:50:01.707Z,23.05
2018-07-03T07:51:01.732Z,23.14
2018-07-03T07:52:01.728Z,23.23
2018-07-03T07:53:01.727Z,23.19
2018-07-03T07:54:01.742Z,23.15
2018-07-03T07:55:01.802Z,23.07
2018-07-03T07:56:01.751Z,23.01
2018-07-03T07:57:01.749Z,22.69
2018-07-03T07:58:01.764Z,22.57
2018-07-03T07:59:01.760Z,22.39
2018-07-03T08:00:01.799Z,22.23
2018-07-03T08:01:01.776Z,22.07
2018-07-03T08:02:01.773Z,22.01
2018-07-03T08:03:01.791Z,21.85
2018-07-03T08:04:01.782Z,21.99
2018-07-03T08:05:01.787Z,21.92
2018-07-03T08:06:01.792Z,21.81
2018-07-03T08:07:01.798Z,21.60
2018-07-03T08:08:01.803Z,21.67
2018-07-03T08:09:01.803Z,21.78
2018-07-03T08:10:01.803Z,21.92
2018-07-03T08:11:01.816Z,22.09
2018-07-03T08:12:01.823Z,22.23
2018-07-03T08:13:01.817Z,22.25
2018-07-03T08:14:01.823Z,22.17
2018-07-03T08:15:01.825Z,22.04
2018-07-03T08:16:01.825Z,22.02
2018-07-03T08:17:01.831Z,21.98
2018-07-03T08:18:01.838Z,21.91
2018-07-03T08:19:01.853Z,21.88
2018-07-03T08:20:01.845Z,21.61
2018-07-03T08:21:01.848Z,21.59
2018-07-03T08:22:01.846Z,21.61
2018-07-03T08:23:01.845Z,21.46
2018-07-03T08:24:01.851Z,21.53
2018-07-03T08:25:01.857Z,21.38
2018-07-03T08:26:01.858Z,21.36
2018-07-03T08:27:01.867Z,21.32
2018-07-03T08:28:01.868Z,21.24
2018-07-03T08:29:01.872Z,21.16
2018-07-03T08:30:01.873Z,21.20
2018-07-03T08:31:01.894Z,21.23
2018-07-03T08:32:01.913Z,21.05
2018-07-03T08:33:01.890Z,21.05
2018-07-03T08:34:01.947Z,21.02
2018-07-03T08:35:01.878Z,21.08
2018-07-03T08:36:01.889Z,21.02
2018-07-03T08:37:01.897Z,21.16
2018-07-03T08:38:01.894Z,21.04
2018-07-03T08:39:01.895Z,21.13
2018-07-03T08:40:01.919Z,21.21
2018-07-03T08:41:01.904Z,21.24
2018-07-03T08:42:01.907Z,21.16
2018-07-03T08:43:01.917Z,21.01
2018-07-03T08:44:01.909Z,20.90
2018-07-03T08:45:01.914Z,20.83
2018-07-03T08:46:01.916Z,20.77
2018-07-03T08:47:01.911Z,20.74
2018-07-03T08:48:01.913Z,20.62
2018-07-03T08:49:01.918Z,20.65
2018-07-03T08:50:01.927Z,20.64
2018-07-03T08:51:01.940Z,20.49
2018-07-03T08:52:01.951Z,20.46
2018-07-03T08:53:01.926Z,20.42
2018-07-03T08:54:01.929Z,20.39
2018-07-03T08:55:01.974Z,20.34
2018-07-03T08:56:01.940Z,20.34
2018-07-03T08:57:01.929Z,20.30
2018-07-03T08:58:01.961Z,20.20
2018-07-03T08:59:01.934Z,20.18
2018-07-03T09:00:01.941Z,20.12
2018-07-03T09:01:01.937Z,19.98
2018-07-03T09:02:01.953Z,19.95
2018-07-03T09:03:01.956Z,20.02
2018-07-03T09:04:01.935Z,20.02
2018-07-03T09:05:01.945Z,19.98
2018-07-03T09:06:01.944Z,20.03
2018-07-03T09:07:01.948Z,20.00
2018-07-03T09:08:01.952Z,20.06
2018-07-03T09:09:01.950Z,20.00
2018-07-03T09:10:01.942Z,20.09
2018-07-03T09:11:01.949Z,19.97
2018-07-03T09:12:01.956Z,20.03
2018-07-03T09:13:01.950Z,20.08
2018-07-03T09:14:01.956Z,20.16
2018-07-03T09:15:01.957Z,20.06
2018-07-03T09:16:01.959Z,20.03
2018-07-03T09:17:02.138Z,20.08
2018-07-03T09:18:02.089Z,19.97
2018-07-03T09:19:01.955Z,19.91
2018-07-03T09:20:01.955Z,19.94
2018-07-03T09:21:01.959Z,20.10
2018-07-03T09:22:01.980Z,19.95
2018-07-03T09:23:01.965Z,19.84
2018-07-03T09:24:01.960Z,19.70
2018-07-03T09:25:01.954Z,19.73
2018-07-03T09:26:01.980Z,19.70
2018-07-03T09:27:01.979Z,19.68
2018-07-03T09:28:01.952Z,19.72
2018-07-03T09:29:01.974Z,19.61
2018-07-03T09:30:01.964Z,19.70
2018-07-03T09:31:01.963Z,19.65
2018-07-03T09:32:01.976Z,19.69
2018-07-03T09:33:01.974Z,19.68
2018-07-03T09:34:01.965Z,19.63
2018-07-03T09:35:01.966Z,19.60
2018-07-03T09:36:01.965Z,19.68
2018-07-03T09:37:01.969Z,19.68
2018-07-03T09:38:01.979Z,19.68
2018-07-03T09:39:01.967Z,19.65
2018-07-03T09:40:01.979Z,19.68
2018-07-03T09:41:01.982Z,19.61
2018-07-03T09:42:01.994Z,19.66
2018-07-03T09:43:01.968Z,19.57
2018-07-03T09:44:02.092Z,19.51
2018-07-03T09:45:01.971Z,19.47
2018-07-03T09:46:01.967Z,19.54
2018-07-03T09:47:01.972Z,19.43
2018-07-03T09:48:01.971Z,19.38
2018-07-03T09:49:01.970Z,19.46
2018-07-03T09:50:01.987Z,19.35
2018-07-03T09:51:01.996Z,19.38
2018-07-03T09:52:01.963Z,19.23
2018-07-03T09:53:01.971Z,19.24
2018-07-03T09:54:01.966Z,19.23
2018-07-03T09:55:02.045Z,19.31
2018-07-03T09:56:01.968Z,19.18
2018-07-03T09:57:01.963Z,19.15
2018-07-03T09:58:01.964Z,19.18
2018-07-03T09:59:01.968Z,19.06
2018-07-03T10:00:01.965Z,18.90
2018-07-03T10:01:01.959Z,18.79
2018-07-03T10:02:01.963Z,18.77
2018-07-03T10:03:01.973Z,18.67
2018-07-03T10:04:01.967Z,18.68
2018-07-03T10:05:01.972Z,18.50
2018-07-03T10:06:01.962Z,18.47
2018-07-03T10:07:01.962Z,18.44
2018-07-03T10:08:01.962Z,18.33
2018-07-03T10:09:01.978Z,18.37
2018-07-03T10:10:01.975Z,18.36
2018-07-03T10:11:02.016Z,18.31
2018-07-03T10:12:01.956Z,18.31
2018-07-03T10:13:02.019Z,18.18
2018-07-03T10:14:01.962Z,18.22
2018-07-03T10:15:01.987Z,18.28
2018-07-03T10:16:01.961Z,18.24
2018-07-03T10:17:01.960Z,18.15
2018-07-03T10:18:01.968Z,18.29
2018-07-03T10:19:01.980Z,18.36
2018-07-03T10:20:01.954Z,18.49
2018-07-03T10:21:01.955Z,18.44
2018-07-03T10:22:01.967Z,18.40
2018-07-03T10:23:01.952Z,18.46
2018-07-03T10:24:01.950Z,18.37
2018-07-03T10:25:01.950Z,18.31
2018-07-03T10:26:01.950Z,18.40
2018-07-03T10:27:01.974Z,18.39
2018-07-03T10:28:01.976Z,18.39
2018-07-03T10:29:01.945Z,18.46
2018-07-03T10:30:01.962Z,18.36
2018-07-03T10:31:01.956Z,18.29
2018-07-03T10:32:01.940Z,18.10
2018-07-03T10:33:01.972Z,18.15
2018-07-03T10:34:01.940Z,18.18
2018-07-03T10:35:01.943Z,18.04
2018-07-03T10:36:01.965Z,17.87
2018-07-03T10:37:02.060Z,17.92
2018-07-03T10:38:02.067Z,17.94
2018-07-03T10:39:01.940Z,17.89
2018-07-03T10:40:01.936Z,17.89
2018-07-03T10:41:01.987Z,17.88
2018-07-03T10:42:01.940Z,17.89
2018-07-03T10:43:01.938Z,17.89
2018-07-03T10:44:01.935Z,17.92
2018-07-03T10:45:02.133Z,17.88
2018-07-03T10:46:01.963Z,17.97
2018-07-03T10:47:01.926Z,17.88
2018-07-03T10:48:01.925Z,17.97
2018-07-03T10:49:01.925Z,17.94
2018-07-03T10:50:01.945Z,17.89
2018-07-03T10:51:01.927Z,17.88
2018-07-03T10:52:01.928Z,17.94
2018-07-03T10:53:01.928Z,17.89
2018-07-03T10:54:01.925Z,17.92
2018-07-03T10:55:01.920Z,17.82
2018-07-03T10:56:01.922Z,17.92
2018-07-03T10:57:01.958Z,17.89
2018-07-03T10:58:01.918Z,17.94
2018-07-03T10:59:01.968Z,17.91
2018-07-03T11:00:01.918Z,18.03
2018-07-03T11:01:01.914Z,17.94
2018-07-03T11:02:01.918Z,17.87
2018-07-03T11:03:01.954Z,18.10
2018-07-03T11:04:01.922Z,18.12
2018-07-03T11:05:01.941Z,18.19
2018-07-03T11:06:01.941Z,18.18
2018-07-03T11:07:01.916Z,18.04
2018-07-03T11:08:01.912Z,18.21
2018-07-03T11:09:01.915Z,18.25
2018-07-03T11:10:01.913Z,18.29
2018-07-03T11:11:01.916Z,18.46
2018-07-03T11:12:01.916Z,18.34
2018-07-03T11:13:01.923Z,18.47
2018-07-03T11:14:01.940Z,18.42
2018-07-03T11:15:01.930Z,18.39
2018-07-03T11:16:01.914Z,18.55
2018-07-03T11:17:01.915Z,18.68
2018-07-03T11:18:01.924Z,18.74
2018-07-03T11:19:01.922Z,18.49
2018-07-03T11:20:02.008Z,18.64
2018-07-03T11:21:01.921Z,18.64
2018-07-03T11:22:01.921Z,18.83
2018-07-03T11:23:01.927Z,18.80
2018-07-03T11:24:01.924Z,18.72
2018-07-03T11:25:01.931Z,18.79
2018-07-03T11:26:01.938Z,18.82
2018-07-03T11:27:01.928Z,18.95
2018-07-03T11:28:01.920Z,19.02
2018-07-03T11:29:01.963Z,19.24
2018-07-03T11:30:01.925Z,19.38
2018-07-03T11:31:01.934Z,19.39
2018-07-03T11:32:01.934Z,19.32
2018-07-03T11:33:01.961Z,19.39
2018-07-03T11:34:01.934Z,19.43
2018-07-03T11:35:01.932Z,19.43
2018-07-03T11:36:01.932Z,19.69
2018-07-03T11:37:01.935Z,19.66
2018-07-03T11:38:01.966Z,19.70
2018-07-03T11:39:01.933Z,19.79
2018-07-03T11:40:01.957Z,19.94
2018-07-03T11:41:01.942Z,19.80
2018-07-03T11:42:01.945Z,19.98
2018-07-03T11:43:02.021Z,19.90
2018-07-03T11:44:01.952Z,20.02
2018-07-03T11:45:01.953Z,20.16
2018-07-03T11:46:01.951Z,20.21
2018-07-03T11:47:01.956Z,20.13
2018-07-03T11:48:01.957Z,20.30
2018-07-03T11:49:01.960Z,20.35
2018-07-03T11:50:01.999Z,20.47
2018-07-03T11:51:01.962Z,20.33
2018-07-03T11:52:01.971Z,20.39
2018-07-03T11:53:01.995Z,20.50
2018-07-03T11:54:01.972Z,20.49
2018-07-03T11:55:01.977Z,20.72
2018-07-03T11:56:01.978Z,20.65
2018-07-03T11:57:01.972Z,20.68
2018-07-03T11:58:01.981Z,20.86
2018-07-03T11:59:01.988Z,21.17
2018-07-03T12:00:01.989Z,21.24
2018-07-03T12:01:01.982Z,21.30
2018-07-03T12:02:01.993Z,21.36
2018-07-03T12:03:02.002Z,21.51
2018-07-03T12:04:02.014Z,21.71
2018-07-03T12:05:02.013Z,21.79
2018-07-03T12:06:02.027Z,21.79
2018-07-03T12:07:02.025Z,21.90
2018-07-03T12:08:02.027Z,22.20
2018-07-03T12:09:02.020Z,22.35
2018-07-03T12:10:02.034Z,22.43
2018-07-03T12:11:02.031Z,22.49
2018-07-03T12:12:02.036Z,22.89
2018-07-03T12:13:02.041Z,22.90
2018-07-03T12:14:02.056Z,23.15
2018-07-03T12:15:02.054Z,23.04
2018-07-03T12:16:02.076Z,23.38
2018-07-03T12:17:02.060Z,23.24
2018-07-03T12:18:02.072Z,23.49
2018-07-03T12:19:02.082Z,23.58
2018-07-03T12:20:02.078Z,23.85
2018-07-03T12:21:02.083Z,24.00
2018-07-03T12:22:02.094Z,23.70
2018-07-03T12:23:02.084Z,24.02
2018-07-03T12:24:02.102Z,23.67
2018-07-03T12:25:02.111Z,23.86
2018-07-03T12:26:02.113Z,24.22
2018-07-03T12:27:02.126Z,24.35
2018-07-03T12:28:02.150Z,23.53
2018-07-03T12:29:02.182Z,23.47
2018-07-03T12:30:02.141Z,23.50
2018-07-03T12:31:02.148Z,23.26
2018-07-03T12:32:02.162Z,22.87
2018-07-03T12:33:02.155Z,22.74
2018-07-03T12:34:02.163Z,22.84
2018-07-03T12:35:02.182Z,23.31
2018-07-03T12:36:02.175Z,22.97
2018-07-03T12:37:02.183Z,22.93
2018-07-03T12:38:02.195Z,23.09
2018-07-03T12:39:02.209Z,22.94
2018-07-03T12:40:02.207Z,23.20
2018-07-03T12:41:02.212Z,23.32
2018-07-03T12:42:02.219Z,23.19
2018-07-03T12:43:02.243Z,23.01
2018-07-03T12:44:02.305Z,23.47
2018-07-03T12:45:02.254Z,22.99
2018-07-03T12:46:02.244Z,22.90
2018-07-03T12:47:02.266Z,23.32
2018-07-03T12:48:02.269Z,23.77
2018-07-03T12:49:02.289Z,24.12
2018-07-03T12:50:02.295Z,23.82
2018-07-03T12:51:02.277Z,23.72
2018-07-03T12:52:02.268Z,23.70
2018-07-03T12:53:02.285Z,23.60
2018-07-03T12:54:02.297Z,23.85
2018-07-03T12:55:02.300Z,23.70
2018-07-03T12:56:02.357Z,23.39
2018-07-03T12:57:02.333Z,23.42
2018-07-03T12:58:02.316Z,23.71
2018-07-03T12:59:02.342Z,24.00
2018-07-03T13:00:02.328Z,23.97
2018-07-03T13:01:02.419Z,23.80
2018-07-03T13:02:02.345Z,23.60
2018-07-03T13:03:02.344Z,23.43
2018-07-03T13:04:02.354Z,23.35
2018-07-03T13:05:02.396Z,23.23
2018-07-03T13:06:02.365Z,23.04
2018-07-03T13:07:02.366Z,23.17
2018-07-03T13:08:02.418Z,23.20
2018-07-03T13:09:02.380Z,23.02
2018-07-03T13:10:02.385Z,22.72
2018-07-03T13:11:02.393Z,22.82
2018-07-03T13:12:02.403Z,22.94
2018-07-03T13:13:02.401Z,22.67
2018-07-03T13:14:02.409Z,22.57
2018-07-03T13:15:02.411Z,22.68
2018-07-03T13:16:02.416Z,22.65
2018-07-03T13:17:02.430Z,22.84
2018-07-03T13:18:02.432Z,22.92
2018-07-03T13:19:02.428Z,23.14
2018-07-03T13:20:02.439Z,23.31
2018-07-03T13:21:02.455Z,23.35
2018-07-03T13:22:02.442Z,23.24
2018-07-03T13:23:02.451Z,23.39
2018-07-03T13:24:02.440Z,23.14
2018-07-03T13:25:02.455Z,23.14
2018-07-03T13:26:02.469Z,23.05
2018-07-03T13:27:02.463Z,23.05
2018-07-03T13:28:02.468Z,22.99
2018-07-03T13:29:02.471Z,23.04
2018-07-03T13:30:02.524Z,23.14
2018-07-03T13:31:02.476Z,23.15
2018-07-03T13:32:02.495Z,23.32
2018-07-03T13:33:02.491Z,23.60
2018-07-03T13:34:02.493Z,23.72
2018-07-03T13:35:02.490Z,23.86
2018-07-03T13:36:02.491Z,24.12
2018-07-03T13:37:02.498Z,24.04
2018-07-03T13:38:02.499Z,24.07
2018-07-03T13:39:02.508Z,24.37
2018-07-03T13:40:02.511Z,24.31
2018-07-03T13:41:02.511Z,24.45
2018-07-03T13:42:02.533Z,24.32
2018-07-03T13:43:02.521Z,24.71
2018-07-03T13:44:02.548Z,24.67
2018-07-03T13:45:02.531Z,24.60
2018-07-03T13:46:02.532Z,24.88
2018-07-03T13:47:02.549Z,24.83
2018-07-03T13:48:02.558Z,24.67
2018-07-03T13:49:02.550Z,24.29
2018-07-03T13:50:02.544Z,24.64
2018-07-03T13:51:02.557Z,24.71
2018-07-03T13:52:02.564Z,24.60
2018-07-03T13:53:02.584Z,24.88
2018-07-03T13:54:02.576Z,25.16
2018-07-03T13:55:02.574Z,25.32
2018-07-03T13:56:02.582Z,25.42
2018-07-03T13:57:02.583Z,25.59
2018-07-03T13:58:02.592Z,25.69
2018-07-03T13:59:02.588Z,25.72
2018-07-03T14:00:02.597Z,25.47
2018-07-03T14:01:02.609Z,25.00
2018-07-03T14:02:02.605Z,25.10
2018-07-03T14:03:02.616Z,24.95
2018-07-03T14:04:02.621Z,24.91